sensor_id;sensor_type;location;lat;lon;timestamp;pressure;altitude;pressure_sealevel;temperature;humidity
6829;BME280;17930;48.592;8.868;2023-05-22T00:02:02;96379.75;;;13.70;100.00
6829;BME280;17930;48.592;8.868;2023-05-22T00:04:30;96383.31;;;13.52;100.00
6829;BME280;17930;48.592;8.868;2023-05-22T00:06:56;96382.38;;;13.48;100.00
6829;BME280;17930;48.592;8.868;2023-05-22T00:09:24;96382.38;;;13.48;100.00
6829;BME280;17930;48.592;8.868;2023-05-22T00:11:51;96376.06;;;13.49;100.00
6829;BME280;17930;48.592;8.868;2023-05-22T00:14:18;96365.09;;;13.47;100.00
6829;BME280;17930;48.592;8.868;2023-05-22T00:16:45;96370.81;;;13.49;100.00
6829;BME280;17930;48.592;8.868;2023-05-22T00:19:12;96368.19;;;13.49;100.00
6829;BME280;17930;48.592;8.868;2023-05-22T00:21:42;96377.50;;;13.33;100.00
6829;BME280;17930;48.592;8.868;2023-05-22T00:24:09;96375.28;;;13.27;100.00
6829;BME280;17930;48.592;8.868;2023-05-22T00:26:35;96376.28;;;13.18;100.00
6829;BME280;17930;48.592;8.868;2023-05-22T00:29:02;96364.44;;;13.20;100.00
6829;BME280;17930;48.592;8.868;2023-05-22T00:31:30;96371.16;;;13.13;100.00
6829;BME280;17930;48.592;8.868;2023-05-22T00:33:57;96373.78;;;13.13;100.00
6829;BME280;17930;48.592;8.868;2023-05-22T00:36:23;96370.34;;;13.04;100.00
6829;BME280;17930;48.592;8.868;2023-05-22T00:38:52;96375.78;;;12.94;100.00
6829;BME280;17930;48.592;8.868;2023-05-22T00:41:18;96371.13;;;12.91;100.00
6829;BME280;17930;48.592;8.868;2023-05-22T00:43:46;96366.91;;;13.03;100.00
6829;BME280;17930;48.592;8.868;2023-05-22T00:46:15;96365.31;;;12.94;100.00
6829;BME280;17930;48.592;8.868;2023-05-22T00:48:45;96352.47;;;13.06;100.00
6829;BME280;17930;48.592;8.868;2023-05-22T00:51:12;96361.94;;;13.15;100.00
6829;BME280;17930;48.592;8.868;2023-05-22T00:53:39;96352.75;;;13.26;100.00
6829;BME280;17930;48.592;8.868;2023-05-22T00:56:07;96362.13;;;13.19;100.00
6829;BME280;17930;48.592;8.868;2023-05-22T00:58:34;96363.47;;;13.16;100.00
6829;BME280;17930;48.592;8.868;2023-05-22T01:01:02;96364.00;;;13.05;100.00
6829;BME280;17930;48.592;8.868;2023-05-22T01:03:33;96367.13;;;13.07;100.00
6829;BME280;17930;48.592;8.868;2023-05-22T01:06:02;96372.81;;;13.09;100.00
6829;BME280;17930;48.592;8.868;2023-05-22T01:08:29;96372.66;;;13.05;100.00
6829;BME280;17930;48.592;8.868;2023-05-22T01:11:00;96374.97;;;13.07;100.00
6829;BME280;17930;48.592;8.868;2023-05-22T01:13:33;96380.91;;;12.99;100.00
6829;BME280;17930;48.592;8.868;2023-05-22T01:16:16;96384.66;;;13.06;100.00
6829;BME280;17930;48.592;8.868;2023-05-22T01:18:54;96389.41;;;13.39;100.00
6829;BME280;17930;48.592;8.868;2023-05-22T01:21:28;96385.94;;;13.31;100.00
6829;BME280;17930;48.592;8.868;2023-05-22T01:27:06;96397.59;;;13.25;100.00
6829;BME280;17930;48.592;8.868;2023-05-22T01:29:45;96390.25;;;13.13;100.00
6829;BME280;17930;48.592;8.868;2023-05-22T01:32:16;96396.22;;;13.05;100.00
6829;BME280;17930;48.592;8.868;2023-05-22T01:34:50;96386.97;;;13.08;100.00
6829;BME280;17930;48.592;8.868;2023-05-22T01:37:18;96395.91;;;13.07;100.00
6829;BME280;17930;48.592;8.868;2023-05-22T01:39:46;96397.06;;;13.14;100.00
6829;BME280;17930;48.592;8.868;2023-05-22T01:42:14;96392.59;;;13.15;100.00
6829;BME280;17930;48.592;8.868;2023-05-22T01:44:40;96396.16;;;13.19;100.00
6829;BME280;17930;48.592;8.868;2023-05-22T01:47:07;96383.06;;;13.19;100.00
6829;BME280;17930;48.592;8.868;2023-05-22T01:49:36;96388.81;;;13.21;100.00
6829;BME280;17930;48.592;8.868;2023-05-22T01:52:07;96390.22;;;13.27;100.00
6829;BME280;17930;48.592;8.868;2023-05-22T01:54:41;96387.31;;;13.28;100.00
6829;BME280;17930;48.592;8.868;2023-05-22T01:57:14;96389.63;;;13.30;100.00
6829;BME280;17930;48.592;8.868;2023-05-22T01:59:44;96392.72;;;13.31;100.00
6829;BME280;17930;48.592;8.868;2023-05-22T02:02:14;96392.72;;;13.31;100.00
6829;BME280;17930;48.592;8.868;2023-05-22T02:04:45;96385.09;;;13.22;100.00
6829;BME280;17930;48.592;8.868;2023-05-22T02:07:13;96388.53;;;13.09;100.00
6829;BME280;17930;48.592;8.868;2023-05-22T02:09:41;96385.31;;;13.12;100.00
6829;BME280;17930;48.592;8.868;2023-05-22T02:12:11;96387.94;;;13.12;100.00
6829;BME280;17930;48.592;8.868;2023-05-22T02:14:38;96386.50;;;13.06;100.00
6829;BME280;17930;48.592;8.868;2023-05-22T02:17:05;96394.75;;;12.99;100.00
6829;BME280;17930;48.592;8.868;2023-05-22T02:19:33;96385.38;;;12.85;100.00
6829;BME280;17930;48.592;8.868;2023-05-22T02:22:01;96388.56;;;12.82;100.00
6829;BME280;17930;48.592;8.868;2023-05-22T02:24:28;96390.53;;;12.90;100.00
6829;BME280;17930;48.592;8.868;2023-05-22T02:26:55;96390.09;;;13.10;100.00
6829;BME280;17930;48.592;8.868;2023-05-22T02:29:22;96391.53;;;13.16;100.00
6829;BME280;17930;48.592;8.868;2023-05-22T02:31:48;96395.47;;;13.27;100.00
6829;BME280;17930;48.592;8.868;2023-05-22T02:34:15;96391.66;;;13.32;100.00
6829;BME280;17930;48.592;8.868;2023-05-22T02:36:42;96391.22;;;13.39;100.00
6829;BME280;17930;48.592;8.868;2023-05-22T02:39:10;96393.22;;;13.33;100.00
6829;BME280;17930;48.592;8.868;2023-05-22T02:41:36;96387.41;;;13.23;100.00
6829;BME280;17930;48.592;8.868;2023-05-22T02:44:03;96385.25;;;13.60;100.00
6829;BME280;17930;48.592;8.868;2023-05-22T02:46:30;96384.53;;;13.46;100.00
6829;BME280;17930;48.592;8.868;2023-05-22T02:48:57;96393.16;;;13.69;100.00
6829;BME280;17930;48.592;8.868;2023-05-22T02:51:23;96393.06;;;13.82;100.00
6829;BME280;17930;48.592;8.868;2023-05-22T02:53:50;96394.63;;;13.83;100.00
6829;BME280;17930;48.592;8.868;2023-05-22T02:56:18;96396.34;;;13.87;100.00
6829;BME280;17930;48.592;8.868;2023-05-22T02:58:45;96394.94;;;13.82;100.00
6829;BME280;17930;48.592;8.868;2023-05-22T03:01:12;96395.22;;;13.80;100.00
6829;BME280;17930;48.592;8.868;2023-05-22T03:03:38;96401.88;;;13.86;100.00
6829;BME280;17930;48.592;8.868;2023-05-22T03:06:05;96402.25;;;13.71;100.00
6829;BME280;17930;48.592;8.868;2023-05-22T03:08:33;96397.31;;;13.48;100.00
6829;BME280;17930;48.592;8.868;2023-05-22T03:11:02;96407.97;;;13.51;100.00
6829;BME280;17930;48.592;8.868;2023-05-22T03:13:30;96409.53;;;13.52;100.00
6829;BME280;17930;48.592;8.868;2023-05-22T03:15:57;96409.16;;;13.45;100.00
6829;BME280;17930;48.592;8.868;2023-05-22T03:18:24;96405.75;;;13.23;100.00
6829;BME280;17930;48.592;8.868;2023-05-22T03:20:51;96409.94;;;13.24;100.00
6829;BME280;17930;48.592;8.868;2023-05-22T03:23:17;96415.47;;;13.09;100.00
6829;BME280;17930;48.592;8.868;2023-05-22T03:25:45;96411.25;;;13.00;100.00
6829;BME280;17930;48.592;8.868;2023-05-22T03:28:12;96419.78;;;12.92;100.00
6829;BME280;17930;48.592;8.868;2023-05-22T03:30:39;96420.28;;;12.80;100.00
6829;BME280;17930;48.592;8.868;2023-05-22T03:33:06;96425.63;;;12.49;100.00
6829;BME280;17930;48.592;8.868;2023-05-22T03:35:33;96424.25;;;12.51;100.00
6829;BME280;17930;48.592;8.868;2023-05-22T03:38:00;96419.69;;;12.30;100.00
6829;BME280;17930;48.592;8.868;2023-05-22T03:40:27;96421.44;;;12.21;100.00
6829;BME280;17930;48.592;8.868;2023-05-22T03:42:53;96421.16;;;12.23;100.00
6829;BME280;17930;48.592;8.868;2023-05-22T03:45:20;96427.84;;;12.15;100.00
6829;BME280;17930;48.592;8.868;2023-05-22T03:47:50;96421.72;;;12.20;100.00
6829;BME280;17930;48.592;8.868;2023-05-22T03:50:16;96434.34;;;12.18;100.00
6829;BME280;17930;48.592;8.868;2023-05-22T03:52:43;96425.41;;;12.19;100.00
6829;BME280;17930;48.592;8.868;2023-05-22T03:55:10;96421.34;;;12.13;100.00
6829;BME280;17930;48.592;8.868;2023-05-22T03:57:36;96415.13;;;12.09;100.00
6829;BME280;17930;48.592;8.868;2023-05-22T04:00:04;96416.09;;;12.13;100.00
6829;BME280;17930;48.592;8.868;2023-05-22T04:02:34;96418.25;;;12.24;100.00
6829;BME280;17930;48.592;8.868;2023-05-22T04:05:07;96407.81;;;12.37;100.00
6829;BME280;17930;48.592;8.868;2023-05-22T04:07:34;96412.25;;;12.50;100.00
6829;BME280;17930;48.592;8.868;2023-05-22T04:10:02;96414.56;;;12.65;100.00
6829;BME280;17930;48.592;8.868;2023-05-22T04:12:28;96402.19;;;12.84;100.00
6829;BME280;17930;48.592;8.868;2023-05-22T04:14:55;96404.47;;;12.99;100.00
6829;BME280;17930;48.592;8.868;2023-05-22T04:17:22;96408.13;;;13.11;100.00
6829;BME280;17930;48.592;8.868;2023-05-22T04:19:48;96410.59;;;13.30;100.00
6829;BME280;17930;48.592;8.868;2023-05-22T04:22:16;96410.16;;;13.36;100.00
6829;BME280;17930;48.592;8.868;2023-05-22T04:24:43;96410.34;;;13.39;100.00
6829;BME280;17930;48.592;8.868;2023-05-22T04:27:13;96406.09;;;13.43;100.00
6829;BME280;17930;48.592;8.868;2023-05-22T04:29:40;96403.69;;;13.55;100.00
6829;BME280;17930;48.592;8.868;2023-05-22T04:32:09;96409.28;;;13.62;100.00
6829;BME280;17930;48.592;8.868;2023-05-22T04:34:36;96405.59;;;13.63;100.00
6829;BME280;17930;48.592;8.868;2023-05-22T04:37:03;96401.19;;;13.72;100.00
6829;BME280;17930;48.592;8.868;2023-05-22T04:39:31;96393.66;;;13.79;100.00
6829;BME280;17930;48.592;8.868;2023-05-22T04:41:58;96392.47;;;13.85;100.00
6829;BME280;17930;48.592;8.868;2023-05-22T04:44:30;96397.94;;;13.97;100.00
6829;BME280;17930;48.592;8.868;2023-05-22T04:46:59;96399.97;;;14.00;100.00
6829;BME280;17930;48.592;8.868;2023-05-22T04:49:26;96399.13;;;14.13;100.00
6829;BME280;17930;48.592;8.868;2023-05-22T04:51:53;96398.88;;;14.23;100.00
6829;BME280;17930;48.592;8.868;2023-05-22T04:54:21;96398.44;;;14.37;100.00
6829;BME280;17930;48.592;8.868;2023-05-22T04:56:49;96396.75;;;14.41;100.00
6829;BME280;17930;48.592;8.868;2023-05-22T04:59:16;96409.16;;;14.49;100.00
6829;BME280;17930;48.592;8.868;2023-05-22T05:01:43;96409.22;;;14.66;100.00
6829;BME280;17930;48.592;8.868;2023-05-22T05:04:12;96404.25;;;14.73;100.00
6829;BME280;17930;48.592;8.868;2023-05-22T05:06:39;96407.09;;;14.85;100.00
6829;BME280;17930;48.592;8.868;2023-05-22T05:09:05;96412.38;;;15.02;100.00
6829;BME280;17930;48.592;8.868;2023-05-22T05:11:33;96415.03;;;15.19;100.00
6829;BME280;17930;48.592;8.868;2023-05-22T05:14:01;96410.09;;;15.42;100.00
6829;BME280;17930;48.592;8.868;2023-05-22T05:16:28;96416.88;;;15.60;100.00
6829;BME280;17930;48.592;8.868;2023-05-22T05:18:54;96422.63;;;15.71;100.00
6829;BME280;17930;48.592;8.868;2023-05-22T05:21:22;96413.00;;;15.66;100.00
6829;BME280;17930;48.592;8.868;2023-05-22T05:23:52;96413.50;;;15.60;100.00
6829;BME280;17930;48.592;8.868;2023-05-22T05:26:18;96421.69;;;15.75;100.00
6829;BME280;17930;48.592;8.868;2023-05-22T05:28:46;96412.94;;;16.00;100.00
6829;BME280;17930;48.592;8.868;2023-05-22T05:31:15;96415.72;;;16.12;100.00
6829;BME280;17930;48.592;8.868;2023-05-22T05:33:42;96405.84;;;16.54;100.00
6829;BME280;17930;48.592;8.868;2023-05-22T05:36:09;96407.91;;;16.69;100.00
6829;BME280;17930;48.592;8.868;2023-05-22T05:38:35;96407.31;;;16.64;100.00
6829;BME280;17930;48.592;8.868;2023-05-22T05:41:02;96408.38;;;16.71;100.00
6829;BME280;17930;48.592;8.868;2023-05-22T05:43:29;96415.19;;;16.72;100.00
6829;BME280;17930;48.592;8.868;2023-05-22T05:45:55;96414.72;;;16.99;100.00
6829;BME280;17930;48.592;8.868;2023-05-22T05:48:23;96415.13;;;17.09;100.00
6829;BME280;17930;48.592;8.868;2023-05-22T05:50:50;96421.72;;;17.24;100.00
6829;BME280;17930;48.592;8.868;2023-05-22T05:53:17;96430.31;;;17.12;100.00
6829;BME280;17930;48.592;8.868;2023-05-22T05:55:43;96421.00;;;17.15;100.00
6829;BME280;17930;48.592;8.868;2023-05-22T05:58:10;96427.00;;;17.24;100.00
6829;BME280;17930;48.592;8.868;2023-05-22T06:00:37;96436.22;;;17.09;100.00
6829;BME280;17930;48.592;8.868;2023-05-22T06:03:03;96434.44;;;17.22;100.00
6829;BME280;17930;48.592;8.868;2023-05-22T06:05:32;96429.16;;;17.22;100.00
6829;BME280;17930;48.592;8.868;2023-05-22T06:07:58;96439.72;;;17.22;100.00
6829;BME280;17930;48.592;8.868;2023-05-22T06:10:25;96439.09;;;17.45;100.00
6829;BME280;17930;48.592;8.868;2023-05-22T06:12:51;96440.84;;;17.61;100.00
6829;BME280;17930;48.592;8.868;2023-05-22T06:15:18;96443.50;;;17.73;100.00
6829;BME280;17930;48.592;8.868;2023-05-22T06:17:45;96443.38;;;18.02;100.00
6829;BME280;17930;48.592;8.868;2023-05-22T06:20:12;96446.47;;;18.24;100.00
6829;BME280;17930;48.592;8.868;2023-05-22T06:22:41;96449.91;;;18.37;100.00
6829;BME280;17930;48.592;8.868;2023-05-22T06:25:08;96442.66;;;18.46;100.00
6829;BME280;17930;48.592;8.868;2023-05-22T06:27:35;96445.75;;;18.71;100.00
6829;BME280;17930;48.592;8.868;2023-05-22T06:30:03;96447.94;;;18.81;100.00
6829;BME280;17930;48.592;8.868;2023-05-22T06:32:29;96445.78;;;19.07;100.00
6829;BME280;17930;48.592;8.868;2023-05-22T06:34:56;96443.22;;;18.99;100.00
6829;BME280;17930;48.592;8.868;2023-05-22T06:37:23;96440.59;;;18.99;100.00
6829;BME280;17930;48.592;8.868;2023-05-22T06:39:51;96445.09;;;18.98;100.00
6829;BME280;17930;48.592;8.868;2023-05-22T06:42:18;96435.41;;;19.26;100.00
6829;BME280;17930;48.592;8.868;2023-05-22T06:44:44;96444.03;;;19.62;100.00
6829;BME280;17930;48.592;8.868;2023-05-22T06:47:11;96446.59;;;19.47;100.00
6829;BME280;17930;48.592;8.868;2023-05-22T06:49:38;96450.13;;;19.39;100.00
6829;BME280;17930;48.592;8.868;2023-05-22T06:52:05;96445.72;;;19.43;100.00
6829;BME280;17930;48.592;8.868;2023-05-22T06:54:32;96446.94;;;19.33;100.00
6829;BME280;17930;48.592;8.868;2023-05-22T06:57:00;96454.22;;;19.48;100.00
6829;BME280;17930;48.592;8.868;2023-05-22T06:59:29;96449.00;;;19.79;100.00
6829;BME280;17930;48.592;8.868;2023-05-22T07:01:55;96459.34;;;19.96;100.00
6829;BME280;17930;48.592;8.868;2023-05-22T07:04:22;96455.16;;;20.22;100.00
6829;BME280;17930;48.592;8.868;2023-05-22T07:06:49;96456.31;;;20.52;100.00
6829;BME280;17930;48.592;8.868;2023-05-22T07:09:15;96465.69;;;20.34;100.00
6829;BME280;17930;48.592;8.868;2023-05-22T07:11:43;96471.84;;;20.38;100.00
6829;BME280;17930;48.592;8.868;2023-05-22T07:14:11;96474.44;;;20.50;100.00
6829;BME280;17930;48.592;8.868;2023-05-22T07:16:37;96472.69;;;20.84;100.00
6829;BME280;17930;48.592;8.868;2023-05-22T07:19:04;96471.75;;;20.92;100.00
6829;BME280;17930;48.592;8.868;2023-05-22T07:21:33;96471.63;;;21.19;100.00
6829;BME280;17930;48.592;8.868;2023-05-22T07:24:00;96471.31;;;21.40;100.00
6829;BME280;17930;48.592;8.868;2023-05-22T07:26:33;96477.28;;;21.18;100.00
6829;BME280;17930;48.592;8.868;2023-05-22T07:29:00;96475.31;;;21.15;100.00
6829;BME280;17930;48.592;8.868;2023-05-22T07:31:28;96474.00;;;21.74;100.00
6829;BME280;17930;48.592;8.868;2023-05-22T07:33:55;96469.56;;;22.00;100.00
6829;BME280;17930;48.592;8.868;2023-05-22T07:36:22;96475.41;;;21.53;100.00
6829;BME280;17930;48.592;8.868;2023-05-22T07:38:48;96476.34;;;21.60;100.00
6829;BME280;17930;48.592;8.868;2023-05-22T07:41:16;96468.72;;;21.59;100.00
6829;BME280;17930;48.592;8.868;2023-05-22T07:43:42;96474.28;;;22.07;100.00
6829;BME280;17930;48.592;8.868;2023-05-22T07:46:09;96472.06;;;22.50;100.00
6829;BME280;17930;48.592;8.868;2023-05-22T07:48:37;96477.63;;;22.64;100.00
6829;BME280;17930;48.592;8.868;2023-05-22T07:51:04;96476.84;;;22.85;100.00
6829;BME280;17930;48.592;8.868;2023-05-22T07:53:32;96469.56;;;22.82;100.00
6829;BME280;17930;48.592;8.868;2023-05-22T07:55:59;96484.28;;;22.54;100.00
6829;BME280;17930;48.592;8.868;2023-05-22T07:58:25;96476.63;;;22.71;100.00
6829;BME280;17930;48.592;8.868;2023-05-22T08:00:52;96479.63;;;22.92;100.00
6829;BME280;17930;48.592;8.868;2023-05-22T08:03:20;96477.47;;;22.98;100.00
6829;BME280;17930;48.592;8.868;2023-05-22T08:05:48;96483.06;;;22.93;100.00
6829;BME280;17930;48.592;8.868;2023-05-22T08:08:15;96479.44;;;23.26;100.00
6829;BME280;17930;48.592;8.868;2023-05-22T08:10:41;96479.19;;;23.35;100.00
6829;BME280;17930;48.592;8.868;2023-05-22T08:13:08;96477.88;;;23.77;100.00
6829;BME280;17930;48.592;8.868;2023-05-22T08:15:36;96478.06;;;23.91;100.00
6829;BME280;17930;48.592;8.868;2023-05-22T08:18:03;96480.56;;;24.10;100.00
6829;BME280;17930;48.592;8.868;2023-05-22T08:20:30;96479.81;;;25.25;100.00
6829;BME280;17930;48.592;8.868;2023-05-22T08:22:58;96475.94;;;25.76;100.00
6829;BME280;17930;48.592;8.868;2023-05-22T08:25:24;96469.31;;;25.56;100.00
6829;BME280;17930;48.592;8.868;2023-05-22T08:27:51;96472.16;;;25.77;100.00
6829;BME280;17930;48.592;8.868;2023-05-22T08:30:18;96466.84;;;25.87;100.00
6829;BME280;17930;48.592;8.868;2023-05-22T08:32:45;96463.28;;;26.82;100.00
6829;BME280;17930;48.592;8.868;2023-05-22T08:35:12;96458.69;;;27.38;100.00
6829;BME280;17930;48.592;8.868;2023-05-22T08:37:39;96443.06;;;28.35;100.00
6829;BME280;17930;48.592;8.868;2023-05-22T08:40:09;96440.91;;;29.61;100.00
6829;BME280;17930;48.592;8.868;2023-05-22T08:42:37;96443.78;;;30.10;94.96
6829;BME280;17930;48.592;8.868;2023-05-22T08:45:04;96439.78;;;29.58;95.88
6829;BME280;17930;48.592;8.868;2023-05-22T08:47:33;96432.81;;;30.80;89.93
6829;BME280;17930;48.592;8.868;2023-05-22T08:50:01;96441.50;;;30.08;92.32
6829;BME280;17930;48.592;8.868;2023-05-22T08:52:33;96438.44;;;30.89;93.97
6829;BME280;17930;48.592;8.868;2023-05-22T08:55:03;96439.59;;;30.35;93.19
6829;BME280;17930;48.592;8.868;2023-05-22T08:57:33;96437.56;;;30.72;95.87
6829;BME280;17930;48.592;8.868;2023-05-22T09:00:00;96434.28;;;30.84;91.43
6829;BME280;17930;48.592;8.868;2023-05-22T09:02:27;96430.09;;;31.06;93.01
6829;BME280;17930;48.592;8.868;2023-05-22T09:04:54;96432.09;;;31.48;87.35
6829;BME280;17930;48.592;8.868;2023-05-22T09:07:21;96433.22;;;31.50;84.92
6829;BME280;17930;48.592;8.868;2023-05-22T09:09:49;96431.63;;;32.11;79.78
6829;BME280;17930;48.592;8.868;2023-05-22T09:12:16;96433.22;;;32.78;79.39
6829;BME280;17930;48.592;8.868;2023-05-22T09:14:44;96427.19;;;32.20;78.45
6829;BME280;17930;48.592;8.868;2023-05-22T09:17:14;96436.56;;;31.77;81.96
6829;BME280;17930;48.592;8.868;2023-05-22T09:19:42;96428.72;;;32.56;79.50
6829;BME280;17930;48.592;8.868;2023-05-22T09:22:09;96420.56;;;32.40;81.84
6829;BME280;17930;48.592;8.868;2023-05-22T09:24:37;96414.06;;;33.05;79.79
6829;BME280;17930;48.592;8.868;2023-05-22T09:27:05;96419.16;;;33.03;78.03
6829;BME280;17930;48.592;8.868;2023-05-22T09:29:32;96433.38;;;30.94;81.94
6829;BME280;17930;48.592;8.868;2023-05-22T09:32:00;96430.38;;;30.06;89.01
6829;BME280;17930;48.592;8.868;2023-05-22T09:34:27;96429.19;;;29.41;99.56
6829;BME280;17930;48.592;8.868;2023-05-22T09:37:00;96417.59;;;32.00;87.71
6829;BME280;17930;48.592;8.868;2023-05-22T09:39:37;96410.38;;;32.13;81.25
6829;BME280;17930;48.592;8.868;2023-05-22T09:42:04;96423.53;;;30.58;84.47
6829;BME280;17930;48.592;8.868;2023-05-22T09:44:31;96437.44;;;29.20;91.96
6829;BME280;17930;48.592;8.868;2023-05-22T09:46:58;96425.84;;;29.67;94.14
6829;BME280;17930;48.592;8.868;2023-05-22T09:49:26;96430.78;;;30.35;89.46
6829;BME280;17930;48.592;8.868;2023-05-22T09:51:54;96417.13;;;30.98;87.39
6829;BME280;17930;48.592;8.868;2023-05-22T09:54:24;96418.81;;;30.39;87.14
6829;BME280;17930;48.592;8.868;2023-05-22T09:56:54;96425.88;;;29.27;94.38
6829;BME280;17930;48.592;8.868;2023-05-22T09:59:26;96439.16;;;27.34;100.00
6829;BME280;17930;48.592;8.868;2023-05-22T10:01:54;96429.59;;;27.29;100.00
6829;BME280;17930;48.592;8.868;2023-05-22T10:04:22;96430.34;;;27.54;100.00
6829;BME280;17930;48.592;8.868;2023-05-22T10:06:52;96429.22;;;27.20;100.00
6829;BME280;17930;48.592;8.868;2023-05-22T10:09:22;96431.16;;;27.20;100.00
6829;BME280;17930;48.592;8.868;2023-05-22T10:11:49;96434.91;;;26.32;100.00
6829;BME280;17930;48.592;8.868;2023-05-22T10:14:18;96434.97;;;26.87;100.00
6829;BME280;17930;48.592;8.868;2023-05-22T10:16:45;96422.97;;;27.86;100.00
6829;BME280;17930;48.592;8.868;2023-05-22T10:19:12;96423.81;;;29.41;100.00
6829;BME280;17930;48.592;8.868;2023-05-22T10:21:40;96412.25;;;30.40;100.00
6829;BME280;17930;48.592;8.868;2023-05-22T10:24:08;96413.78;;;31.13;96.33
6829;BME280;17930;48.592;8.868;2023-05-22T10:26:36;96407.84;;;31.44;93.75
6829;BME280;17930;48.592;8.868;2023-05-22T10:29:09;96395.97;;;33.02;87.13
6829;BME280;17930;48.592;8.868;2023-05-22T10:31:41;96399.53;;;32.99;78.14
6829;BME280;17930;48.592;8.868;2023-05-22T10:34:16;96391.91;;;34.47;76.68
6829;BME280;17930;48.592;8.868;2023-05-22T10:36:53;96391.19;;;32.90;71.99
6829;BME280;17930;48.592;8.868;2023-05-22T10:39:36;96383.63;;;33.01;72.98
6829;BME280;17930;48.592;8.868;2023-05-22T10:42:11;96371.47;;;34.80;70.09
6829;BME280;17930;48.592;8.868;2023-05-22T10:44:38;96379.66;;;34.43;69.43
6829;BME280;17930;48.592;8.868;2023-05-22T10:47:07;96371.94;;;34.54;67.69
6829;BME280;17930;48.592;8.868;2023-05-22T10:49:36;96373.84;;;33.63;69.25
6829;BME280;17930;48.592;8.868;2023-05-22T10:52:04;96374.41;;;34.36;68.38
6829;BME280;17930;48.592;8.868;2023-05-22T10:54:38;96364.66;;;34.76;67.00
6829;BME280;17930;48.592;8.868;2023-05-22T10:57:09;96369.09;;;34.08;63.80
6829;BME280;17930;48.592;8.868;2023-05-22T10:59:38;96367.06;;;33.71;64.60
6829;BME280;17930;48.592;8.868;2023-05-22T11:02:19;96358.00;;;33.49;64.79
6829;BME280;17930;48.592;8.868;2023-05-22T11:04:47;96358.91;;;34.36;63.93
6829;BME280;17930;48.592;8.868;2023-05-22T11:07:14;96359.84;;;32.92;64.00
6829;BME280;17930;48.592;8.868;2023-05-22T11:09:42;96350.13;;;34.32;62.47
6829;BME280;17930;48.592;8.868;2023-05-22T11:12:14;96347.53;;;33.76;64.55
6829;BME280;17930;48.592;8.868;2023-05-22T11:14:46;96340.59;;;35.11;62.30
6829;BME280;17930;48.592;8.868;2023-05-22T11:17:15;96338.16;;;36.50;60.03
6829;BME280;17930;48.592;8.868;2023-05-22T11:19:43;96329.03;;;36.05;55.36
6829;BME280;17930;48.592;8.868;2023-05-22T11:22:16;96331.16;;;36.01;55.42
6829;BME280;17930;48.592;8.868;2023-05-22T11:24:45;96335.38;;;36.32;55.71
6829;BME280;17930;48.592;8.868;2023-05-22T11:27:12;96334.19;;;37.79;53.17
6829;BME280;17930;48.592;8.868;2023-05-22T11:29:40;96326.25;;;38.08;49.87
6829;BME280;17930;48.592;8.868;2023-05-22T11:32:09;96319.94;;;38.34;52.67
6829;BME280;17930;48.592;8.868;2023-05-22T11:34:40;96322.72;;;37.31;50.55
6829;BME280;17930;48.592;8.868;2023-05-22T11:37:09;96314.16;;;36.27;50.06
6829;BME280;17930;48.592;8.868;2023-05-22T11:39:36;96320.50;;;35.42;51.09
6829;BME280;17930;48.592;8.868;2023-05-22T11:42:05;96308.63;;;36.79;50.82
6829;BME280;17930;48.592;8.868;2023-05-22T11:44:31;96314.81;;;36.88;49.86
6829;BME280;17930;48.592;8.868;2023-05-22T11:46:58;96306.97;;;36.90;50.23
6829;BME280;17930;48.592;8.868;2023-05-22T11:49:26;96309.69;;;36.99;51.00
6829;BME280;17930;48.592;8.868;2023-05-22T11:51:53;96314.06;;;34.94;51.91
6829;BME280;17930;48.592;8.868;2023-05-22T11:54:19;96313.28;;;35.91;53.82
6829;BME280;17930;48.592;8.868;2023-05-22T11:56:46;96311.22;;;36.04;53.21
6829;BME280;17930;48.592;8.868;2023-05-22T11:59:15;96300.81;;;36.11;54.30
6829;BME280;17930;48.592;8.868;2023-05-22T12:01:42;96307.00;;;37.26;54.81
6829;BME280;17930;48.592;8.868;2023-05-22T12:04:08;96295.75;;;38.50;48.88
6829;BME280;17930;48.592;8.868;2023-05-22T12:06:35;96297.03;;;36.48;49.29
6829;BME280;17930;48.592;8.868;2023-05-22T12:09:02;96298.78;;;37.52;49.18
6829;BME280;17930;48.592;8.868;2023-05-22T12:11:33;96299.31;;;37.92;48.25
6829;BME280;17930;48.592;8.868;2023-05-22T12:14:01;96299.28;;;36.01;48.43
6829;BME280;17930;48.592;8.868;2023-05-22T12:16:33;96301.50;;;35.09;52.82
6829;BME280;17930;48.592;8.868;2023-05-22T12:19:03;96293.63;;;37.54;50.43
6829;BME280;17930;48.592;8.868;2023-05-22T12:21:30;96296.97;;;37.49;47.66
6829;BME280;17930;48.592;8.868;2023-05-22T12:24:01;96295.41;;;36.50;49.24
6829;BME280;17930;48.592;8.868;2023-05-22T12:26:28;96306.84;;;36.06;50.30
6829;BME280;17930;48.592;8.868;2023-05-22T12:28:56;96309.06;;;35.99;50.86
6829;BME280;17930;48.592;8.868;2023-05-22T12:31:23;96318.88;;;36.27;49.66
6829;BME280;17930;48.592;8.868;2023-05-22T12:33:53;96324.31;;;33.22;54.16
6829;BME280;17930;48.592;8.868;2023-05-22T12:36:20;96340.09;;;29.99;61.37
6829;BME280;17930;48.592;8.868;2023-05-22T12:38:46;96355.72;;;28.71;69.07
6829;BME280;17930;48.592;8.868;2023-05-22T12:41:13;96344.75;;;28.48;71.55
6829;BME280;17930;48.592;8.868;2023-05-22T12:43:40;96346.19;;;28.59;73.11
6829;BME280;17930;48.592;8.868;2023-05-22T12:46:06;96341.91;;;28.72;73.65
6829;BME280;17930;48.592;8.868;2023-05-22T12:48:33;96346.44;;;29.19;71.16
6829;BME280;17930;48.592;8.868;2023-05-22T12:51:01;96336.31;;;28.46;72.23
6829;BME280;17930;48.592;8.868;2023-05-22T12:53:27;96325.38;;;29.47;71.86
6829;BME280;17930;48.592;8.868;2023-05-22T12:55:54;96311.50;;;31.45;65.10
6829;BME280;17930;48.592;8.868;2023-05-22T12:58:21;96317.03;;;32.75;60.88
6829;BME280;17930;48.592;8.868;2023-05-22T13:00:47;96317.97;;;32.53;61.57
6829;BME280;17930;48.592;8.868;2023-05-22T13:03:14;96315.28;;;33.81;59.84
6829;BME280;17930;48.592;8.868;2023-05-22T13:05:41;96311.22;;;34.02;54.60
6829;BME280;17930;48.592;8.868;2023-05-22T13:08:09;96319.50;;;32.54;53.05
6829;BME280;17930;48.592;8.868;2023-05-22T13:10:35;96313.38;;;34.07;54.71